sensor_id;sensor_type;location;lat;lon;timestamp;temperature;humidity
5723;DHT22;2886;49.722;8.612;2023-05-24T00:01:37;12.10;91.80
5723;DHT22;2886;49.722;8.612;2023-05-24T00:04:03;12.10;93.50
5723;DHT22;2886;49.722;8.612;2023-05-24T00:06:29;12.00;94.20
5723;DHT22;2886;49.722;8.612;2023-05-24T00:08:59;12.00;94.70
5723;DHT22;2886;49.722;8.612;2023-05-24T00:11:26;11.90;95.10
5723;DHT22;2886;49.722;8.612;2023-05-24T00:13:52;11.80;95.70
5723;DHT22;2886;49.722;8.612;2023-05-24T00:16:18;11.80;96.00
5723;DHT22;2886;49.722;8.612;2023-05-24T00:18:43;11.80;96.40
5723;DHT22;2886;49.722;8.612;2023-05-24T00:21:12;11.70;96.40
5723;DHT22;2886;49.722;8.612;2023-05-24T00:23:38;11.60;96.60
5723;DHT22;2886;49.722;8.612;2023-05-24T00:26:04;11.50;96.90
5723;DHT22;2886;49.722;8.612;2023-05-24T00:28:30;11.50;97.50
5723;DHT22;2886;49.722;8.612;2023-05-24T00:30:57;11.50;97.70
5723;DHT22;2886;49.722;8.612;2023-05-24T00:33:23;11.40;97.80
5723;DHT22;2886;49.722;8.612;2023-05-24T00:35:49;11.40;98.00
5723;DHT22;2886;49.722;8.612;2023-05-24T00:38:26;11.30;98.20
5723;DHT22;2886;49.722;8.612;2023-05-24T00:40:52;11.30;98.30
5723;DHT22;2886;49.722;8.612;2023-05-24T00:43:21;11.20;98.40
5723;DHT22;2886;49.722;8.612;2023-05-24T00:45:46;11.20;98.60
5723;DHT22;2886;49.722;8.612;2023-05-24T00:48:12;11.20;98.90
5723;DHT22;2886;49.722;8.612;2023-05-24T00:50:39;11.10;99.20
5723;DHT22;2886;49.722;8.612;2023-05-24T00:53:05;11.10;99.20
5723;DHT22;2886;49.722;8.612;2023-05-24T00:55:33;11.10;99.30
5723;DHT22;2886;49.722;8.612;2023-05-24T00:58:00;11.00;99.40
5723;DHT22;2886;49.722;8.612;2023-05-24T01:00:27;11.00;99.30
5723;DHT22;2886;49.722;8.612;2023-05-24T01:02:53;11.00;99.10
5723;DHT22;2886;49.722;8.612;2023-05-24T01:05:19;11.00;99.20
5723;DHT22;2886;49.722;8.612;2023-05-24T01:10:54;11.10;97.00
5723;DHT22;2886;49.722;8.612;2023-05-24T01:16:19;11.20;95.30
5723;DHT22;2886;49.722;8.612;2023-05-24T01:18:51;11.20;95.60
5723;DHT22;2886;49.722;8.612;2023-05-24T01:27:05;11.10;95.30
5723;DHT22;2886;49.722;8.612;2023-05-24T01:29:33;11.10;95.60
5723;DHT22;2886;49.722;8.612;2023-05-24T01:31:59;11.10;95.40
5723;DHT22;2886;49.722;8.612;2023-05-24T01:34:25;11.10;95.60
5723;DHT22;2886;49.722;8.612;2023-05-24T01:36:51;11.10;95.40
5723;DHT22;2886;49.722;8.612;2023-05-24T01:39:17;11.00;95.70
5723;DHT22;2886;49.722;8.612;2023-05-24T01:44:33;10.90;96.10
5723;DHT22;2886;49.722;8.612;2023-05-24T01:47:27;10.90;96.40
5723;DHT22;2886;49.722;8.612;2023-05-24T01:50:00;10.80;96.70
5723;DHT22;2886;49.722;8.612;2023-05-24T01:52:30;10.80;96.90
5723;DHT22;2886;49.722;8.612;2023-05-24T01:54:59;10.70;97.20
5723;DHT22;2886;49.722;8.612;2023-05-24T01:57:26;10.70;97.30
5723;DHT22;2886;49.722;8.612;2023-05-24T01:59:53;10.70;97.40
5723;DHT22;2886;49.722;8.612;2023-05-24T02:02:20;10.70;97.50
5723;DHT22;2886;49.722;8.612;2023-05-24T02:04:46;10.60;97.70
5723;DHT22;2886;49.722;8.612;2023-05-24T02:07:11;10.60;98.00
5723;DHT22;2886;49.722;8.612;2023-05-24T02:09:37;10.60;98.00
5723;DHT22;2886;49.722;8.612;2023-05-24T02:12:03;10.60;97.70
5723;DHT22;2886;49.722;8.612;2023-05-24T02:14:29;10.50;98.00
5723;DHT22;2886;49.722;8.612;2023-05-24T02:16:57;10.50;97.60
5723;DHT22;2886;49.722;8.612;2023-05-24T02:19:25;10.50;97.60
5723;DHT22;2886;49.722;8.612;2023-05-24T02:21:51;10.50;97.50
5723;DHT22;2886;49.722;8.612;2023-05-24T02:24:17;10.50;97.70
5723;DHT22;2886;49.722;8.612;2023-05-24T02:26:43;10.50;97.70
5723;DHT22;2886;49.722;8.612;2023-05-24T02:29:09;10.50;97.50
5723;DHT22;2886;49.722;8.612;2023-05-24T02:31:41;10.50;97.80
5723;DHT22;2886;49.722;8.612;2023-05-24T02:34:06;10.50;97.40
5723;DHT22;2886;49.722;8.612;2023-05-24T02:36:32;10.50;97.30
5723;DHT22;2886;49.722;8.612;2023-05-24T02:39:00;10.60;97.00
5723;DHT22;2886;49.722;8.612;2023-05-24T02:41:26;10.60;96.90
5723;DHT22;2886;49.722;8.612;2023-05-24T02:43:52;10.70;96.40
5723;DHT22;2886;49.722;8.612;2023-05-24T02:46:17;10.70;96.10
5723;DHT22;2886;49.722;8.612;2023-05-24T02:48:43;10.70;96.60
5723;DHT22;2886;49.722;8.612;2023-05-24T02:51:08;10.70;96.20
5723;DHT22;2886;49.722;8.612;2023-05-24T02:53:34;10.80;96.40
5723;DHT22;2886;49.722;8.612;2023-05-24T02:56:00;10.70;96.70
5723;DHT22;2886;49.722;8.612;2023-05-24T02:58:25;10.70;96.50
5723;DHT22;2886;49.722;8.612;2023-05-24T03:00:53;10.60;96.70
5723;DHT22;2886;49.722;8.612;2023-05-24T03:03:20;10.60;96.70
5723;DHT22;2886;49.722;8.612;2023-05-24T03:05:45;10.60;97.10
5723;DHT22;2886;49.722;8.612;2023-05-24T03:08:11;10.60;96.80
5723;DHT22;2886;49.722;8.612;2023-05-24T03:10:37;10.70;96.70
5723;DHT22;2886;49.722;8.612;2023-05-24T03:13:03;10.70;96.70
5723;DHT22;2886;49.722;8.612;2023-05-24T03:15:29;10.70;96.60
5723;DHT22;2886;49.722;8.612;2023-05-24T03:17:55;10.70;96.30
5723;DHT22;2886;49.722;8.612;2023-05-24T03:20:21;10.70;96.30
5723;DHT22;2886;49.722;8.612;2023-05-24T03:22:48;10.70;96.20
5723;DHT22;2886;49.722;8.612;2023-05-24T03:25:13;10.70;95.90
5723;DHT22;2886;49.722;8.612;2023-05-24T03:27:39;10.70;96.20
5723;DHT22;2886;49.722;8.612;2023-05-24T03:30:05;10.80;95.80
5723;DHT22;2886;49.722;8.612;2023-05-24T03:32:31;10.80;95.70
5723;DHT22;2886;49.722;8.612;2023-05-24T03:34:57;10.70;95.70
5723;DHT22;2886;49.722;8.612;2023-05-24T03:37:26;10.80;95.10
5723;DHT22;2886;49.722;8.612;2023-05-24T03:39:52;10.70;94.90
5723;DHT22;2886;49.722;8.612;2023-05-24T03:42:18;10.70;94.80
5723;DHT22;2886;49.722;8.612;2023-05-24T03:44:45;10.70;94.70
5723;DHT22;2886;49.722;8.612;2023-05-24T03:47:11;10.80;94.30
5723;DHT22;2886;49.722;8.612;2023-05-24T03:49:36;10.80;94.40
5723;DHT22;2886;49.722;8.612;2023-05-24T03:52:02;10.70;94.30
5723;DHT22;2886;49.722;8.612;2023-05-24T03:54:28;10.70;94.40
5723;DHT22;2886;49.722;8.612;2023-05-24T03:56:54;10.60;94.80
5723;DHT22;2886;49.722;8.612;2023-05-24T03:59:19;10.50;94.40
5723;DHT22;2886;49.722;8.612;2023-05-24T04:01:46;10.50;94.80
5723;DHT22;2886;49.722;8.612;2023-05-24T04:04:12;10.50;95.20
5723;DHT22;2886;49.722;8.612;2023-05-24T04:06:38;10.50;95.30
5723;DHT22;2886;49.722;8.612;2023-05-24T04:09:06;10.50;95.30
5723;DHT22;2886;49.722;8.612;2023-05-24T04:11:32;10.50;95.50
5723;DHT22;2886;49.722;8.612;2023-05-24T04:13:58;10.50;95.30
5723;DHT22;2886;49.722;8.612;2023-05-24T04:16:27;10.50;95.00
5723;DHT22;2886;49.722;8.612;2023-05-24T04:18:54;10.50;94.80
5723;DHT22;2886;49.722;8.612;2023-05-24T04:21:20;10.50;94.50
5723;DHT22;2886;49.722;8.612;2023-05-24T04:23:45;10.50;94.10
5723;DHT22;2886;49.722;8.612;2023-05-24T04:26:12;10.50;94.10
5723;DHT22;2886;49.722;8.612;2023-05-24T04:28:38;10.50;93.70
5723;DHT22;2886;49.722;8.612;2023-05-24T04:31:05;10.50;94.20
5723;DHT22;2886;49.722;8.612;2023-05-24T04:33:31;10.50;93.90
5723;DHT22;2886;49.722;8.612;2023-05-24T04:35:57;10.50;93.80
5723;DHT22;2886;49.722;8.612;2023-05-24T04:38:25;10.60;93.60
5723;DHT22;2886;49.722;8.612;2023-05-24T04:43:42;10.50;94.00
5723;DHT22;2886;49.722;8.612;2023-05-24T04:46:08;10.60;94.20
5723;DHT22;2886;49.722;8.612;2023-05-24T04:48:34;10.50;94.50
5723;DHT22;2886;49.722;8.612;2023-05-24T04:50:59;10.50;94.70
5723;DHT22;2886;49.722;8.612;2023-05-24T04:53:26;10.40;94.70
5723;DHT22;2886;49.722;8.612;2023-05-24T04:55:51;10.40;94.80
5723;DHT22;2886;49.722;8.612;2023-05-24T04:58:17;10.40;94.80
5723;DHT22;2886;49.722;8.612;2023-05-24T05:00:44;10.40;95.20
5723;DHT22;2886;49.722;8.612;2023-05-24T05:03:10;10.50;94.60
5723;DHT22;2886;49.722;8.612;2023-05-24T05:05:36;10.50;94.40
5723;DHT22;2886;49.722;8.612;2023-05-24T05:08:02;10.40;94.00
5723;DHT22;2886;49.722;8.612;2023-05-24T05:10:28;10.40;93.80
5723;DHT22;2886;49.722;8.612;2023-05-24T05:12:54;10.50;94.10
5723;DHT22;2886;49.722;8.612;2023-05-24T05:15:22;10.60;94.10
5723;DHT22;2886;49.722;8.612;2023-05-24T05:17:48;10.80;94.10
5723;DHT22;2886;49.722;8.612;2023-05-24T05:20:13;11.00;93.10
5723;DHT22;2886;49.722;8.612;2023-05-24T05:22:44;11.00;91.90
5723;DHT22;2886;49.722;8.612;2023-05-24T05:25:10;10.80;92.80
5723;DHT22;2886;49.722;8.612;2023-05-24T05:27:36;10.90;92.10
5723;DHT22;2886;49.722;8.612;2023-05-24T05:30:03;11.00;92.30
5723;DHT22;2886;49.722;8.612;2023-05-24T05:32:28;11.10;91.50
5723;DHT22;2886;49.722;8.612;2023-05-24T05:34:54;11.20;91.50
5723;DHT22;2886;49.722;8.612;2023-05-24T05:37:19;11.10;91.90
5723;DHT22;2886;49.722;8.612;2023-05-24T05:39:47;11.10;93.00
5723;DHT22;2886;49.722;8.612;2023-05-24T05:42:13;11.40;91.50
5723;DHT22;2886;49.722;8.612;2023-05-24T05:44:38;11.60;91.40
5723;DHT22;2886;49.722;8.612;2023-05-24T05:47:04;11.90;86.90
5723;DHT22;2886;49.722;8.612;2023-05-24T05:49:31;11.70;87.50
5723;DHT22;2886;49.722;8.612;2023-05-24T05:52:01;11.80;87.40
5723;DHT22;2886;49.722;8.612;2023-05-24T05:54:27;12.30;84.70
5723;DHT22;2886;49.722;8.612;2023-05-24T05:56:53;13.30;78.50
5723;DHT22;2886;49.722;8.612;2023-05-24T05:59:18;13.80;72.20
5723;DHT22;2886;49.722;8.612;2023-05-24T06:01:44;14.30;68.30
5723;DHT22;2886;49.722;8.612;2023-05-24T06:04:11;14.70;65.70
5723;DHT22;2886;49.722;8.612;2023-05-24T06:06:37;15.00;62.80
5723;DHT22;2886;49.722;8.612;2023-05-24T06:09:02;15.80;60.00
5723;DHT22;2886;49.722;8.612;2023-05-24T06:11:28;15.90;55.60
5723;DHT22;2886;49.722;8.612;2023-05-24T06:13:54;15.20;55.60
5723;DHT22;2886;49.722;8.612;2023-05-24T06:16:19;14.80;59.60
5723;DHT22;2886;49.722;8.612;2023-05-24T06:18:46;14.60;59.50
5723;DHT22;2886;49.722;8.612;2023-05-24T06:21:13;14.60;60.30
5723;DHT22;2886;49.722;8.612;2023-05-24T06:23:39;15.10;58.00
5723;DHT22;2886;49.722;8.612;2023-05-24T06:26:05;14.50;60.30
5723;DHT22;2886;49.722;8.612;2023-05-24T06:28:35;15.20;59.10
5723;DHT22;2886;49.722;8.612;2023-05-24T06:31:04;14.50;59.20
5723;DHT22;2886;49.722;8.612;2023-05-24T06:33:30;14.40;60.60
5723;DHT22;2886;49.722;8.612;2023-05-24T06:35:56;14.60;61.50
5723;DHT22;2886;49.722;8.612;2023-05-24T06:38:22;13.90;61.00
5723;DHT22;2886;49.722;8.612;2023-05-24T06:40:48;14.00;62.10
5723;DHT22;2886;49.722;8.612;2023-05-24T06:43:14;13.70;62.70
5723;DHT22;2886;49.722;8.612;2023-05-24T06:45:40;14.00;64.10
5723;DHT22;2886;49.722;8.612;2023-05-24T06:48:06;13.80;63.90
5723;DHT22;2886;49.722;8.612;2023-05-24T06:50:32;13.70;64.40
5723;DHT22;2886;49.722;8.612;2023-05-24T06:52:57;13.40;63.90
5723;DHT22;2886;49.722;8.612;2023-05-24T06:55:23;13.00;65.40
5723;DHT22;2886;49.722;8.612;2023-05-24T06:57:49;12.60;69.30
5723;DHT22;2886;49.722;8.612;2023-05-24T07:00:15;12.40;71.90
5723;DHT22;2886;49.722;8.612;2023-05-24T07:02:41;12.20;73.90
5723;DHT22;2886;49.722;8.612;2023-05-24T07:05:07;12.30;75.60
5723;DHT22;2886;49.722;8.612;2023-05-24T07:07:39;11.90;75.40
5723;DHT22;2886;49.722;8.612;2023-05-24T07:10:10;11.80;76.00
5723;DHT22;2886;49.722;8.612;2023-05-24T07:12:36;11.80;77.60
5723;DHT22;2886;49.722;8.612;2023-05-24T07:15:03;11.90;77.40
5723;DHT22;2886;49.722;8.612;2023-05-24T07:17:29;12.00;76.10
5723;DHT22;2886;49.722;8.612;2023-05-24T07:19:55;12.00;75.70
5723;DHT22;2886;49.722;8.612;2023-05-24T07:22:21;12.30;77.10
5723;DHT22;2886;49.722;8.612;2023-05-24T07:24:48;12.50;74.10
5723;DHT22;2886;49.722;8.612;2023-05-24T07:27:14;12.50;75.50
5723;DHT22;2886;49.722;8.612;2023-05-24T07:29:40;12.50;74.80
5723;DHT22;2886;49.722;8.612;2023-05-24T07:32:06;12.50;76.10
5723;DHT22;2886;49.722;8.612;2023-05-24T07:34:31;12.50;75.40
5723;DHT22;2886;49.722;8.612;2023-05-24T07:36:57;12.50;73.40
5723;DHT22;2886;49.722;8.612;2023-05-24T07:39:25;12.40;74.00
5723;DHT22;2886;49.722;8.612;2023-05-24T07:41:55;12.30;72.40
5723;DHT22;2886;49.722;8.612;2023-05-24T07:44:21;12.30;74.50
5723;DHT22;2886;49.722;8.612;2023-05-24T07:46:48;12.60;73.60
5723;DHT22;2886;49.722;8.612;2023-05-24T07:49:14;12.50;70.90
5723;DHT22;2886;49.722;8.612;2023-05-24T07:51:40;12.60;70.40
5723;DHT22;2886;49.722;8.612;2023-05-24T07:54:05;12.70;71.80
5723;DHT22;2886;49.722;8.612;2023-05-24T07:56:31;12.70;71.00
5723;DHT22;2886;49.722;8.612;2023-05-24T07:58:57;12.90;68.20
5723;DHT22;2886;49.722;8.612;2023-05-24T08:01:32;13.10;68.00
5723;DHT22;2886;49.722;8.612;2023-05-24T08:04:00;13.10;66.90
5723;DHT22;2886;49.722;8.612;2023-05-24T08:06:25;13.10;65.90
5723;DHT22;2886;49.722;8.612;2023-05-24T08:08:51;13.00;62.90
5723;DHT22;2886;49.722;8.612;2023-05-24T08:11:18;13.20;64.60
5723;DHT22;2886;49.722;8.612;2023-05-24T08:13:44;13.10;64.60
5723;DHT22;2886;49.722;8.612;2023-05-24T08:16:09;13.30;64.50
5723;DHT22;2886;49.722;8.612;2023-05-24T08:18:35;13.30;62.80
5723;DHT22;2886;49.722;8.612;2023-05-24T08:21:01;13.50;62.20
5723;DHT22;2886;49.722;8.612;2023-05-24T08:23:26;13.50;61.70
5723;DHT22;2886;49.722;8.612;2023-05-24T08:25:56;13.30;61.40
5723;DHT22;2886;49.722;8.612;2023-05-24T08:28:23;13.00;61.80
5723;DHT22;2886;49.722;8.612;2023-05-24T08:30:49;13.10;62.30
5723;DHT22;2886;49.722;8.612;2023-05-24T08:33:15;13.20;62.50
5723;DHT22;2886;49.722;8.612;2023-05-24T08:35:41;13.50;58.50
5723;DHT22;2886;49.722;8.612;2023-05-24T08:38:07;13.70;58.80
5723;DHT22;2886;49.722;8.612;2023-05-24T08:40:32;13.90;57.50
5723;DHT22;2886;49.722;8.612;2023-05-24T08:43:00;14.20;60.50
5723;DHT22;2886;49.722;8.612;2023-05-24T08:45:29;14.10;58.50
5723;DHT22;2886;49.722;8.612;2023-05-24T08:47:56;13.90;57.70
5723;DHT22;2886;49.722;8.612;2023-05-24T08:50:23;13.70;57.50
5723;DHT22;2886;49.722;8.612;2023-05-24T08:52:50;13.90;58.30
5723;DHT22;2886;49.722;8.612;2023-05-24T08:55:16;14.00;58.90
5723;DHT22;2886;49.722;8.612;2023-05-24T08:57:43;14.20;59.40
5723;DHT22;2886;49.722;8.612;2023-05-24T09:00:10;14.40;58.10
5723;DHT22;2886;49.722;8.612;2023-05-24T09:02:42;14.10;59.90
5723;DHT22;2886;49.722;8.612;2023-05-24T09:05:12;14.70;58.90
5723;DHT22;2886;49.722;8.612;2023-05-24T09:07:44;15.10;55.10
5723;DHT22;2886;49.722;8.612;2023-05-24T09:10:10;14.80;55.70
5723;DHT22;2886;49.722;8.612;2023-05-24T09:12:38;15.00;53.70
5723;DHT22;2886;49.722;8.612;2023-05-24T09:15:05;15.30;51.90
5723;DHT22;2886;49.722;8.612;2023-05-24T09:17:31;15.40;52.10
5723;DHT22;2886;49.722;8.612;2023-05-24T09:19:57;14.90;53.50
5723;DHT22;2886;49.722;8.612;2023-05-24T09:22:25;14.50;54.80
5723;DHT22;2886;49.722;8.612;2023-05-24T09:24:52;14.60;53.60
5723;DHT22;2886;49.722;8.612;2023-05-24T09:27:22;14.60;52.60
5723;DHT22;2886;49.722;8.612;2023-05-24T09:29:48;14.60;52.50
5723;DHT22;2886;49.722;8.612;2023-05-24T09:32:16;14.70;54.00
5723;DHT22;2886;49.722;8.612;2023-05-24T09:34:43;14.40;53.90
5723;DHT22;2886;49.722;8.612;2023-05-24T09:37:19;14.00;56.70
5723;DHT22;2886;49.722;8.612;2023-05-24T09:39:47;14.20;57.10
5723;DHT22;2886;49.722;8.612;2023-05-24T09:42:17;14.70;55.90
5723;DHT22;2886;49.722;8.612;2023-05-24T09:44:46;14.70;51.30
5723;DHT22;2886;49.722;8.612;2023-05-24T09:47:13;15.10;52.90
5723;DHT22;2886;49.722;8.612;2023-05-24T09:49:39;15.10;51.00
5723;DHT22;2886;49.722;8.612;2023-05-24T09:52:05;14.50;51.10
5723;DHT22;2886;49.722;8.612;2023-05-24T09:54:32;14.60;52.10
5723;DHT22;2886;49.722;8.612;2023-05-24T09:57:02;14.60;51.80
5723;DHT22;2886;49.722;8.612;2023-05-24T09:59:33;14.60;52.60
5723;DHT22;2886;49.722;8.612;2023-05-24T10:02:09;14.70;51.80
5723;DHT22;2886;49.722;8.612;2023-05-24T10:04:35;14.30;52.80
5723;DHT22;2886;49.722;8.612;2023-05-24T10:07:01;14.40;54.30
5723;DHT22;2886;49.722;8.612;2023-05-24T10:09:31;14.50;54.00
5723;DHT22;2886;49.722;8.612;2023-05-24T10:12:02;14.40;54.40
5723;DHT22;2886;49.722;8.612;2023-05-24T10:14:34;14.60;54.90
5723;DHT22;2886;49.722;8.612;2023-05-24T10:17:01;14.70;54.10
5723;DHT22;2886;49.722;8.612;2023-05-24T10:19:28;14.50;54.30
5723;DHT22;2886;49.722;8.612;2023-05-24T10:21:55;15.00;54.30
5723;DHT22;2886;49.722;8.612;2023-05-24T10:24:24;15.10;54.50
5723;DHT22;2886;49.722;8.612;2023-05-24T10:26:51;15.20;53.20
5723;DHT22;2886;49.722;8.612;2023-05-24T10:30:15;15.10;52.30
5723;DHT22;2886;49.722;8.612;2023-05-24T10:32:17;14.90;51.90
5723;DHT22;2886;49.722;8.612;2023-05-24T10:34:44;15.00;51.70
5723;DHT22;2886;49.722;8.612;2023-05-24T10:37:11;15.10;51.60
5723;DHT22;2886;49.722;8.612;2023-05-24T10:39:36;15.40;50.40
5723;DHT22;2886;49.722;8.612;2023-05-24T10:42:03;15.80;49.10
5723;DHT22;2886;49.722;8.612;2023-05-24T10:44:29;15.30;47.10
5723;DHT22;2886;49.722;8.612;2023-05-24T10:47:13;15.10;48.30
5723;DHT22;2886;49.722;8.612;2023-05-24T10:49:50;15.20;49.90
5723;DHT22;2886;49.722;8.612;2023-05-24T10:52:17;15.40;49.40
5723;DHT22;2886;49.722;8.612;2023-05-24T10:57:29;15.80;48.60
5723;DHT22;2886;49.722;8.612;2023-05-24T10:59:56;15.80;48.20
5723;DHT22;2886;49.722;8.612;2023-05-24T11:02:26;15.60;48.10
5723;DHT22;2886;49.722;8.612;2023-05-24T11:04:52;15.60;47.30
5723;DHT22;2886;49.722;8.612;2023-05-24T11:07:20;16.00;47.90
5723;DHT22;2886;49.722;8.612;2023-05-24T11:09:47;15.90;47.60
5723;DHT22;2886;49.722;8.612;2023-05-24T11:12:18;16.00;47.40
5723;DHT22;2886;49.722;8.612;2023-05-24T11:14:51;16.30;46.70
5723;DHT22;2886;49.722;8.612;2023-05-24T11:17:21;15.60;47.10
5723;DHT22;2886;49.722;8.612;2023-05-24T11:19:51;16.00;47.20
5723;DHT22;2886;49.722;8.612;2023-05-24T11:22:19;16.40;46.00
5723;DHT22;2886;49.722;8.612;2023-05-24T11:24:46;16.40;45.80
5723;DHT22;2886;49.722;8.612;2023-05-24T11:27:12;16.30;46.20
5723;DHT22;2886;49.722;8.612;2023-05-24T11:29:42;16.50;47.10
5723;DHT22;2886;49.722;8.612;2023-05-24T11:32:13;16.00;45.10
5723;DHT22;2886;49.722;8.612;2023-05-24T11:34:40;16.10;45.90
5723;DHT22;2886;49.722;8.612;2023-05-24T11:37:06;16.20;46.10
5723;DHT22;2886;49.722;8.612;2023-05-24T11:39:33;16.10;45.40
5723;DHT22;2886;49.722;8.612;2023-05-24T11:42:00;16.30;46.60
5723;DHT22;2886;49.722;8.612;2023-05-24T11:44:30;16.70;46.60
5723;DHT22;2886;49.722;8.612;2023-05-24T11:47:00;16.50;46.30
5723;DHT22;2886;49.722;8.612;2023-05-24T11:49:26;16.30;46.70
5723;DHT22;2886;49.722;8.612;2023-05-24T11:51:54;16.00;45.60
5723;DHT22;2886;49.722;8.612;2023-05-24T11:54:26;16.30;46.70
5723;DHT22;2886;49.722;8.612;2023-05-24T11:56:53;16.70;44.00
5723;DHT22;2886;49.722;8.612;2023-05-24T11:59:26;16.70;44.20
5723;DHT22;2886;49.722;8.612;2023-05-24T12:02:00;16.80;43.40
5723;DHT22;2886;49.722;8.612;2023-05-24T12:04:29;16.80;44.20
5723;DHT22;2886;49.722;8.612;2023-05-24T12:06:56;16.80;44.00
5723;DHT22;2886;49.722;8.612;2023-05-24T12:09:21;16.90;43.90
5723;DHT22;2886;49.722;8.612;2023-05-24T12:11:49;17.10;43.90
5723;DHT22;2886;49.722;8.612;2023-05-24T12:14:28;17.20;43.60
5723;DHT22;2886;49.722;8.612;2023-05-24T12:16:55;16.80;44.40
5723;DHT22;2886;49.722;8.612;2023-05-24T12:19:29;16.90;45.70
5723;DHT22;2886;49.722;8.612;2023-05-24T12:21:57;16.60;45.10
5723;DHT22;2886;49.722;8.612;2023-05-24T12:24:24;16.50;45.70
5723;DHT22;2886;49.722;8.612;2023-05-24T12:26:50;16.80;44.70
5723;DHT22;2886;49.722;8.612;2023-05-24T12:29:17;17.10;43.70
5723;DHT22;2886;49.722;8.612;2023-05-24T12:31:47;17.00;41.90
5723;DHT22;2886;49.722;8.612;2023-05-24T12:34:19;16.70;42.20
5723;DHT22;2886;49.722;8.612;2023-05-24T12:36:45;16.80;41.40
5723;DHT22;2886;49.722;8.612;2023-05-24T12:39:22;17.10;41.80
5723;DHT22;2886;49.722;8.612;2023-05-24T12:41:52;16.90;43.00
5723;DHT22;2886;49.722;8.612;2023-05-24T12:44:35;17.00;42.30
5723;DHT22;2886;49.722;8.612;2023-05-24T12:47:02;17.40;41.70
5723;DHT22;2886;49.722;8.612;2023-05-24T12:49:29;17.50;40.60
5723;DHT22;2886;49.722;8.612;2023-05-24T12:51:55;17.40;40.40
5723;DHT22;2886;49.722;8.612;2023-05-24T12:54:26;17.00;41.00
5723;DHT22;2886;49.722;8.612;2023-05-24T12:56:53;17.50;40.80
5723;DHT22;2886;49.722;8.612;2023-05-24T12:59:19;17.70;41.00
5723;DHT22;2886;49.722;8.612;2023-05-24T13:01:45;18.00;41.10
5723;DHT22;2886;49.722;8.612;2023-05-24T13:04:15;17.90;41.40
5723;DHT22;2886;49.722;8.612;2023-05-24T13:06:41;18.10;41.40
5723;DHT22;2886;49.722;8.612;2023-05-24T13:09:07;18.40;41.90
5723;DHT22;2886;49.722;8.612;2023-05-24T13:11:34;18.40;40.00
5723;DHT22;2886;49.722;8.612;2023-05-24T13:14:01;17.50;38.30
5723;DHT22;2886;49.722;8.612;2023-05-24T13:16:26;17.40;39.00
5723;DHT22;2886;49.722;8.612;2023-05-24T13:18:52;17.40;38.80
5723;DHT22;2886;49.722;8.612;2023-05-24T13:21:18;17.60;39.20
5723;DHT22;2886;49.722;8.612;2023-05-24T13:23:44;17.80;37.70
5723;DHT22;2886;49.722;8.612;2023-05-24T13:26:11;17.30;37.50
5723;DHT22;2886;49.722;8.612;2023-05-24T13:28:37;17.30;39.50
5723;DHT22;2886;49.722;8.612;2023-05-24T13:31:03;17.00;39.70
5723;DHT22;2886;49.722;8.612;2023-05-24T13:33:32;17.20;40.50
5723;DHT22;2886;49.722;8.612;2023-05-24T13:35:58;17.20;40.50
5723;DHT22;2886;49.722;8.612;2023-05-24T13:38:24;17.40;39.90
5723;DHT22;2886;49.722;8.612;2023-05-24T13:40:50;17.70;39.20
5723;DHT22;2886;49.722;8.612;2023-05-24T13:43:17;17.60;38.60
5723;DHT22;2886;49.722;8.612;2023-05-24T13:45:43;17.90;38.00
5723;DHT22;2886;49.722;8.612;2023-05-24T13:48:10;17.70;37.30
5723;DHT22;2886;49.722;8.612;2023-05-24T13:50:36;17.50;37.10
5723;DHT22;2886;49.722;8.612;2023-05-24T13:53:02;17.20;37.80
5723;DHT22;2886;49.722;8.612;2023-05-24T13:55:29;16.90;37.70
5723;DHT22;2886;49.722;8.612;2023-05-24T13:57:55;16.90;38.30
5723;DHT22;2886;49.722;8.612;2023-05-24T14:00:22;17.20;37.90
5723;DHT22;2886;49.722;8.612;2023-05-24T14:02:48;17.30;38.00
5723;DHT22;2886;49.722;8.612;2023-05-24T14:05:14;17.30;37.40
5723;DHT22;2886;49.722;8.612;2023-05-24T14:07:39;17.50;37.20
5723;DHT22;2886;49.722;8.612;2023-05-24T14:10:06;17.80;37.30
5723;DHT22;2886;49.722;8.612;2023-05-24T14:12:32;17.80;37.80
5723;DHT22;2886;49.722;8.612;2023-05-24T14:14:58;17.70;38.30
5723;DHT22;2886;49.722;8.612;2023-05-24T14:17:24;17.50;39.40
5723;DHT22;2886;49.722;8.612;2023-05-24T14:19:49;17.10;39.80
5723;DHT22;2886;49.722;8.612;2023-05-24T14:22:15;17.00;39.70
5723;DHT22;2886;49.722;8.612;2023-05-24T14:24:41;17.20;39.60
5723;DHT22;2886;49.722;8.612;2023-05-24T14:27:07;17.40;39.20
5723;DHT22;2886;49.722;8.612;2023-05-24T14:29:33;17.60;37.90
5723;DHT22;2886;49.722;8.612;2023-05-24T14:31:58;17.40;38.50
5723;DHT22;2886;49.722;8.612;2023-05-24T14:34:24;17.40;38.30
5723;DHT22;2886;49.722;8.612;2023-05-24T14:36:50;17.40;38.80
5723;DHT22;2886;49.722;8.612;2023-05-24T14:39:16;17.70;38.60
5723;DHT22;2886;49.722;8.612;2023-05-24T14:41:41;17.60;37.80
5723;DHT22;2886;49.722;8.612;2023-05-24T14:44:07;17.50;38.20
5723;DHT22;2886;49.722;8.612;2023-05-24T14:46:33;17.90;38.00
5723;DHT22;2886;49.722;8.612;2023-05-24T14:48:58;18.30;37.50
5723;DHT22;2886;49.722;8.612;2023-05-24T14:51:26;18.20;37.00
5723;DHT22;2886;49.722;8.612;2023-05-24T14:53:52;18.20;37.60
5723;DHT22;2886;49.722;8.612;2023-05-24T14:56:18;17.90;37.90
5723;DHT22;2886;49.722;8.612;2023-05-24T14:58:43;18.00;37.90
5723;DHT22;2886;49.722;8.612;2023-05-24T15:01:09;18.10;37.50
5723;DHT22;2886;49.722;8.612;2023-05-24T15:03:35;17.80;37.20
5723;DHT22;2886;49.722;8.612;2023-05-24T15:06:01;17.70;37.30
5723;DHT22;2886;49.722;8.612;2023-05-24T15:08:27;17.90;37.50
5723;DHT22;2886;49.722;8.612;2023-05-24T15:10:53;18.20;37.10
5723;DHT22;2886;49.722;8.612;2023-05-24T15:13:19;18.20;36.80
5723;DHT22;2886;49.722;8.612;2023-05-24T15:15:44;18.00;36.00
5723;DHT22;2886;49.722;8.612;2023-05-24T15:18:10;17.80;36.40
5723;DHT22;2886;49.722;8.612;2023-05-24T15:20:36;18.00;37.10
5723;DHT22;2886;49.722;8.612;2023-05-24T15:23:02;18.30;36.60
5723;DHT22;2886;49.722;8.612;2023-05-24T15:25:28;17.90;36.20
5723;DHT22;2886;49.722;8.612;2023-05-24T15:27:54;17.90;37.70
5723;DHT22;2886;49.722;8.612;2023-05-24T15:30:20;17.50;38.00
5723;DHT22;2886;49.722;8.612;2023-05-24T15:32:48;17.40;38.10
5723;DHT22;2886;49.722;8.612;2023-05-24T15:35:15;17.20;37.80
5723;DHT22;2886;49.722;8.612;2023-05-24T15:37:41;17.10;38.80
5723;DHT22;2886;49.722;8.612;2023-05-24T15:40:10;16.90;38.90
5723;DHT22;2886;49.722;8.612;2023-05-24T15:42:36;16.90;39.10
5723;DHT22;2886;49.722;8.612;2023-05-24T15:45:02;17.10;38.30
5723;DHT22;2886;49.722;8.612;2023-05-24T15:47:28;17.10;38.00
5723;DHT22;2886;49.722;8.612;2023-05-24T15:50:01;16.90;38.30
5723;DHT22;2886;49.722;8.612;2023-05-24T15:52:26;17.10;37.50
5723;DHT22;2886;49.722;8.612;2023-05-24T15:54:53;17.50;37.70
5723;DHT22;2886;49.722;8.612;2023-05-24T15:57:18;17.80;36.30
5723;DHT22;2886;49.722;8.612;2023-05-24T15:59:44;18.10;35.70
5723;DHT22;2886;49.722;8.612;2023-05-24T16:02:10;18.20;35.30
5723;DHT22;2886;49.722;8.612;2023-05-24T16:04:35;18.10;35.70
5723;DHT22;2886;49.722;8.612;2023-05-24T16:07:01;18.40;34.40
5723;DHT22;2886;49.722;8.612;2023-05-24T16:09:27;18.70;34.00
5723;DHT22;2886;49.722;8.612;2023-05-24T16:11:52;18.70;32.60
5723;DHT22;2886;49.722;8.612;2023-05-24T16:14:18;18.40;33.60
5723;DHT22;2886;49.722;8.612;2023-05-24T16:16:43;17.90;35.80
5723;DHT22;2886;49.722;8.612;2023-05-24T16:19:09;17.80;36.10
5723;DHT22;2886;49.722;8.612;2023-05-24T16:21:35;17.70;36.00